Time;durP1;ratioP1;P1;durP2;ratioP2;P2;SDS_P1;SDS_P2;PMS_P1;PMS_P2;Temp;Humidity;BMP_temperature;BMP_pressure;BME280_temperature;BME280_humidity;BME280_pressure;Samples;Min_cycle;Max_cycle;Signal;HPM_P1;HPM_P2
2023/12/29 00:01:31;;;;;;;15.30;8.87;;;;;;;5.53;100.00;63508.78;5052521;28;20185;-54
2023/12/29 00:03:57;;;;;;;16.90;9.47;;;;;;;5.59;100.00;63514.78;5052928;28;20182;-52
2023/12/29 00:06:22;;;;;;;18.20;9.70;;;;;;;5.39;100.00;63493.56;5034798;28;20185;-54
2023/12/29 00:08:48;;;;;;;16.17;8.93;;;;;;;5.48;100.00;63500.28;5053320;28;20197;-54
2023/12/29 00:11:20;;;;;;;17.00;9.57;;;;;;;5.63;100.00;63516.63;5052573;28;20204;-55
2023/12/29 00:13:46;;;;;;;15.30;8.87;;;;;;;5.58;100.00;63513.69;5053018;28;20221;-52
2023/12/29 00:16:12;;;;;;;17.93;9.70;;;;;;;5.63;100.00;63519.13;5052730;28;20217;-59
2023/12/29 00:18:38;;;;;;;17.87;9.00;;;;;;;5.58;100.00;63511.72;5034542;28;20820;-53
2023/12/29 00:21:05;;;;;;;19.43;11.37;;;;;;;5.46;100.00;63501.16;5034727;28;20185;-55
2023/12/29 00:23:31;;;;;;;19.17;10.70;;;;;;;5.49;100.00;63503.88;5052494;28;20233;-55
2023/12/29 00:25:57;;;;;;;22.53;12.30;;;;;;;4.77;100.00;63426.59;5052353;28;20181;-53
2023/12/29 00:28:22;;;;;;;21.07;11.90;;;;;;;4.86;100.00;63433.91;5051291;28;20217;-54
2023/12/29 00:30:48;;;;;;;21.57;12.37;;;;;;;5.01;100.00;63450.22;5052335;28;20213;-54
2023/12/29 00:33:13;;;;;;;20.70;11.27;;;;;;;5.11;100.00;63463.59;5052661;28;20328;-52
2023/12/29 00:35:39;;;;;;;18.30;10.90;;;;;;;5.18;100.00;63470.13;5052302;28;20224;-52
2023/12/29 00:38:06;;;;;;;20.30;11.73;;;;;;;5.52;100.00;63507.69;5052345;28;20213;-54
2023/12/29 00:40:32;;;;;;;18.37;11.30;;;;;;;5.51;100.00;63506.06;5052388;28;20669;-52
2023/12/29 00:42:57;;;;;;;20.00;11.10;;;;;;;5.43;100.00;63494.84;5052324;28;20531;-51
2023/12/29 00:45:23;;;;;;;19.40;10.20;;;;;;;5.22;100.00;63474.50;5052099;28;20243;-53
2023/12/29 00:47:50;;;;;;;19.27;10.17;;;;;;;5.23;100.00;63478.09;5052013;28;20209;-52
2023/12/29 00:50:16;;;;;;;22.60;11.17;;;;;;;5.30;100.00;63483.75;5051987;28;20300;-56
2023/12/29 00:52:42;;;;;;;20.80;11.03;;;;;;;5.36;100.00;63489.72;5052197;28;20209;-55
2023/12/29 00:55:08;;;;;;;18.57;10.10;;;;;;;5.34;100.00;63487.56;5034144;28;20722;-54
2023/12/29 00:57:33;;;;;;;16.87;9.70;;;;;;;5.11;100.00;63463.59;5034200;28;20602;-53
2023/12/29 01:00:00;;;;;;;22.83;10.20;;;;;;;5.02;100.00;63450.78;5051333;28;20193;-51
2023/12/29 01:02:26;;;;;;;15.80;9.57;;;;;;;5.11;100.00;63463.59;5034063;28;20221;-54
2023/12/29 01:04:52;;;;;;;14.57;9.57;;;;;;;5.07;100.00;63461.19;5034011;28;20189;-52
2023/12/29 01:07:17;;;;;;;15.83;9.57;;;;;;;5.25;100.00;63478.31;5051212;28;20217;-53
2023/12/29 01:09:43;;;;;;;18.83;9.80;;;;;;;5.13;100.00;63465.22;5051205;28;20221;-53
2023/12/29 01:12:08;;;;;;;16.43;9.23;;;;;;;5.15;100.00;63466.88;5051698;28;20264;-54
2023/12/29 01:14:34;;;;;;;20.50;10.37;;;;;;;5.16;100.00;63468.50;5051665;28;20552;-56
2023/12/29 01:17:00;;;;;;;15.13;9.47;;;;;;;5.27;100.00;63477.44;5051572;28;20243;-56
2023/12/29 01:19:25;;;;;;;19.93;9.17;;;;;;;5.25;100.00;63478.31;5051681;28;20233;-54
2023/12/29 01:21:51;;;;;;;17.73;9.83;;;;;;;5.35;100.00;63489.19;5051550;28;20213;-53
2023/12/29 01:24:16;;;;;;;18.50;10.27;;;;;;;5.33;100.00;63483.97;5033831;28;20280;-53
2023/12/29 01:26:43;;;;;;;15.83;9.87;;;;;;;5.32;100.00;63485.91;5051481;28;20794;-54
2023/12/29 01:29:08;;;;;;;18.10;9.80;;;;;;;5.32;100.00;63482.88;5051601;28;20219;-52
2023/12/29 01:31:34;;;;;;;16.13;9.33;;;;;;;5.34;100.00;63485.59;5051360;28;20243;-53
2023/12/29 01:33:59;;;;;;;19.83;10.03;;;;;;;5.35;100.00;63488.66;5051690;28;20189;-55
2023/12/29 01:36:25;;;;;;;20.03;10.27;;;;;;;5.27;100.00;63480.50;5051614;28;20226;-53
2023/12/29 01:38:50;;;;;;;16.60;8.97;;;;;;;5.20;100.00;63472.31;5051402;28;20216;-54
2023/12/29 01:41:19;;;;;;;16.57;9.57;;;;;;;4.87;100.00;63439.44;5033527;28;20710;-53
2023/12/29 01:44:00;;;;;;;15.93;8.90;;;;;;;5.00;100.00;63454.13;5051647;28;20209;-54
2023/12/29 01:46:34;;;;;;;15.73;8.80;;;;;;;4.87;100.00;63436.94;5051113;28;20673;-52
2023/12/29 01:49:01;;;;;;;15.67;9.20;;;;;;;4.79;100.00;63431.28;5051133;28;20201;-52
2023/12/29 01:51:28;;;;;;;15.00;8.63;;;;;;;4.64;100.00;63409.44;5051061;28;20721;-53
2023/12/29 01:53:56;;;;;;;18.63;10.83;;;;;;;4.07;100.00;63351.03;5051227;28;20232;-53
2023/12/29 01:56:22;;;;;;;17.77;9.97;;;;;;;4.12;100.00;63353.44;5050971;28;20260;-53
2023/12/29 01:58:49;;;;;;;17.23;10.33;;;;;;;4.22;100.00;63366.78;5051458;28;20239;-53
2023/12/29 02:01:17;;;;;;;18.27;9.37;;;;;;;4.11;100.00;63354.81;5050946;28;20194;-55
2023/12/29 02:03:44;;;;;;;19.23;11.60;;;;;;;3.64;100.00;63304.28;5051253;28;20244;-52
2023/12/29 02:06:10;;;;;;;23.67;12.80;;;;;;;3.69;100.00;63309.72;5050775;28;20227;-52
2023/12/29 02:08:41;;;;;;;20.37;11.87;;;;;;;4.03;100.00;63346.13;5051144;28;20216;-53
2023/12/29 02:11:06;;;;;;;19.57;11.27;;;;;;;4.04;100.00;63347.22;5049678;28;20220;-53
2023/12/29 02:13:32;;;;;;;19.60;10.50;;;;;;;4.32;100.00;63377.66;5050856;28;20831;-52
2023/12/29 02:16:09;;;;;;;20.77;11.13;;;;;;;4.40;100.00;63388.88;5050919;28;20650;-54
2023/12/29 02:18:37;;;;;;;19.70;10.63;;;;;;;4.23;100.00;63365.94;5050771;28;20779;-53
2023/12/29 02:21:03;;;;;;;16.77;10.67;;;;;;;4.42;100.00;63386.03;5050960;28;20732;-54
2023/12/29 02:23:29;;;;;;;19.90;10.43;;;;;;;4.59;100.00;63406.47;5033080;28;20213;-55
2023/12/29 02:26:01;;;;;;;19.37;10.43;;;;;;;4.61;100.00;63409.19;5050718;28;20181;-54
2023/12/29 02:28:27;;;;;;;18.10;10.23;;;;;;;4.41;100.00;63387.44;5051146;28;20217;-55
2023/12/29 02:31:10;;;;;;;20.10;10.43;;;;;;;4.36;100.00;63381.47;5050654;28;20749;-54
2023/12/29 02:33:40;;;;;;;18.93;11.30;;;;;;;4.44;100.00;63390.16;5050686;28;20255;-55
2023/12/29 02:36:06;;;;;;;16.73;9.60;;;;;;;4.22;100.00;63369.28;5050516;28;20246;-52
2023/12/29 02:38:33;;;;;;;15.03;9.77;;;;;;;4.11;100.00;63354.81;5050727;28;20213;-53
2023/12/29 02:40:59;;;;;;;14.53;8.30;;;;;;;4.10;100.00;63351.78;5050644;28;20283;-52
2023/12/29 02:43:25;;;;;;;14.43;8.27;;;;;;;4.23;100.00;63365.38;5049426;28;20220;-54
2023/12/29 02:45:50;;;;;;;19.50;8.73;;;;;;;4.23;100.00;63365.38;5050465;28;20280;-55
2023/12/29 02:48:16;;;;;;;14.13;8.43;;;;;;;4.28;100.00;63371.34;5050741;28;20584;-53
2023/12/29 02:50:42;;;;;;;16.60;8.60;;;;;;;4.28;100.00;63373.31;5050260;28;20644;-52
2023/12/29 02:53:08;;;;;;;14.97;9.70;;;;;;;4.40;100.00;63386.38;5050580;28;20690;-52
2023/12/29 02:55:34;;;;;;;19.00;10.87;;;;;;;4.39;100.00;63382.78;5050310;28;20556;-54
2023/12/29 02:58:00;;;;;;;13.70;9.27;;;;;;;4.57;100.00;63404.84;5050111;28;20213;-55
2023/12/29 03:00:25;;;;;;;17.90;10.17;;;;;;;4.43;100.00;63389.06;5050539;28;20184;-54
2023/12/29 03:02:51;;;;;;;17.67;10.63;;;;;;;4.67;100.00;63417.66;5050308;28;20209;-53
2023/12/29 03:05:16;;;;;;;27.07;12.87;;;;;;;4.33;100.00;63378.75;5050332;28;20192;-52
2023/12/29 03:07:42;;;;;;;20.40;12.00;;;;;;;4.17;100.00;63361.34;5050034;28;20219;-52
2023/12/29 03:10:08;;;;;;;24.07;12.43;;;;;;;4.00;100.00;63342.88;5050045;28;20213;-53
2023/12/29 03:12:34;;;;;;;23.00;11.90;;;;;;;4.09;100.00;63353.19;5032357;28;20225;-52
2023/12/29 03:14:59;;;;;;;16.10;9.80;;;;;;;4.14;100.00;63356.13;5050198;28;20187;-54
2023/12/29 03:17:25;;;;;;;21.77;10.63;;;;;;;4.23;100.00;63370.38;5016036;28;20224;-54
2023/12/29 03:19:50;;;;;;;18.20;10.40;;;;;;;4.25;100.00;63370.03;5050056;28;20197;-53
2023/12/29 03:22:16;;;;;;;18.87;12.63;;;;;;;4.27;100.00;63372.22;5033442;28;20236;-53
2023/12/29 03:24:42;;;;;;;22.00;13.20;;;;;;;4.24;100.00;63368.97;5053657;28;20197;-53
2023/12/29 03:27:08;;;;;;;31.47;17.30;;;;;;;3.95;100.00;63337.44;5053499;28;20224;-52
2023/12/29 03:29:34;;;;;;;30.77;16.43;;;;;;;3.76;100.00;63314.28;5053329;28;20193;-53
2023/12/29 03:31:59;;;;;;;24.37;16.30;;;;;;;3.57;100.00;63296.13;5053469;28;20678;-53
2023/12/29 03:34:25;;;;;;;26.73;15.23;;;;;;;3.52;100.00;63293.19;5035655;28;20216;-53
2023/12/29 03:36:50;;;;;;;28.43;15.53;;;;;;;3.51;100.00;63292.09;5053163;28;20248;-53
2023/12/29 03:39:16;;;;;;;24.87;14.27;;;;;;;3.54;100.00;63295.91;5053314;28;20220;-53
2023/12/29 03:41:42;;;;;;;23.80;14.37;;;;;;;3.62;100.00;63301.56;5052975;28;20209;-54
2023/12/29 03:44:07;;;;;;;20.10;11.90;;;;;;;3.62;100.00;63302.09;5053369;28;20692;-53
2023/12/29 03:46:33;;;;;;;20.50;11.70;;;;;;;3.77;100.00;63317.88;5053061;28;20197;-52
2023/12/29 03:48:59;;;;;;;22.97;12.37;;;;;;;3.41;100.00;63277.34;5053149;28;20184;-54
2023/12/29 03:51:24;;;;;;;23.73;13.17;;;;;;;3.17;100.00;63253.75;5035214;28;20729;-54
2023/12/29 03:53:50;;;;;;;25.53;12.53;;;;;;;3.13;100.00;63246.41;5053408;28;20203;-54
2023/12/29 03:56:17;;;;;;;26.10;14.43;;;;;;;2.62;100.00;63191.56;5052940;28;20260;-54
2023/12/29 03:58:46;;;;;;;24.23;15.13;;;;;;;2.76;100.00;63209.25;5035156;28;20248;-53
2023/12/29 04:01:16;;;;;;;28.77;15.50;;;;;;;3.16;100.00;63249.63;5053088;28;20206;-58
2023/12/29 04:03:43;;;;;;;24.63;14.53;;;;;;;3.30;100.00;63267.88;5052964;28;20214;-52
2023/12/29 04:06:09;;;;;;;26.10;14.00;;;;;;;3.30;100.00;63265.41;5035143;28;20280;-52
2023/12/29 04:08:35;;;;;;;22.33;14.03;;;;;;;3.37;100.00;63277.97;5052701;28;20724;-56
2023/12/29 04:11:03;;;;;;;24.37;13.57;;;;;;;3.50;100.00;63289.06;5052760;28;20239;-52
2023/12/29 04:13:28;;;;;;;27.10;13.33;;;;;;;3.68;100.00;63305.59;5052685;28;20308;-52
2023/12/29 04:15:54;;;;;;;21.30;12.13;;;;;;;3.50;100.00;63291.56;5034963;28;20216;-52
2023/12/29 04:18:21;;;;;;;21.73;11.23;;;;;;;3.45;100.00;63283.66;5051534;28;20216;-53
2023/12/29 04:20:47;;;;;;;23.43;11.87;;;;;;;3.43;100.00;63284.47;5034773;28;20186;-54
2023/12/29 04:23:12;;;;;;;20.33;11.60;;;;;;;3.43;100.00;63282.00;5052265;28;20220;-53
2023/12/29 04:25:38;;;;;;;22.53;11.20;;;;;;;3.62;100.00;63301.56;5052523;28;20316;-52
2023/12/29 04:28:03;;;;;;;19.30;11.83;;;;;;;3.64;100.00;63301.25;5052557;28;20228;-52
2023/12/29 04:30:29;;;;;;;21.10;11.33;;;;;;;3.71;100.00;63311.34;5034305;28;20242;-53
2023/12/29 04:32:55;;;;;;;19.50;11.70;;;;;;;3.62;100.00;63304.59;5052264;28;20217;-51
2023/12/29 04:35:21;;;;;;;23.33;13.43;;;;;;;3.86;100.00;63327.63;5051608;28;20196;-53
2023/12/29 04:37:47;;;;;;;23.33;12.77;;;;;;;3.73;100.00;63314.06;5052233;28;20220;-54
2023/12/29 04:40:12;;;;;;;21.27;12.30;;;;;;;3.69;100.00;63309.16;5052056;28;20193;-51
2023/12/29 04:42:38;;;;;;;25.17;11.57;;;;;;;3.63;100.00;63300.72;5052414;28;20220;-51
2023/12/29 04:45:05;;;;;;;20.20;12.47;;;;;;;3.66;100.00;63308.38;5052031;28;20663;-52
2023/12/29 04:47:31;;;;;;;19.43;11.97;;;;;;;3.73;100.00;63313.53;5052224;28;20244;-52
2023/12/29 04:49:57;;;;;;;20.57;11.87;;;;;;;3.82;100.00;63326.31;5052164;28;20274;-53
2023/12/29 04:52:22;;;;;;;20.93;13.10;;;;;;;3.20;100.00;63259.50;5052075;28;20635;-54
2023/12/29 04:54:48;;;;;;;23.87;13.80;;;;;;;3.31;100.00;63268.97;5051977;28;20195;-52
2023/12/29 04:57:13;;;;;;;26.63;15.77;;;;;;;3.42;100.00;63277.88;5051827;28;20229;-54
2023/12/29 04:59:40;;;;;;;29.73;18.23;;;;;;;3.42;100.00;63282.88;5051856;28;20565;-54
2023/12/29 05:02:05;;;;;;;29.77;18.03;;;;;;;3.57;100.00;63296.13;5051925;28;20256;-53
2023/12/29 05:04:31;;;;;;;31.43;17.23;;;;;;;3.44;100.00;63282.53;5051940;28;20682;-54
2023/12/29 05:06:57;;;;;;;26.23;15.13;;;;;;;3.85;100.00;63326.56;5051878;28;20371;-54
2023/12/29 05:09:23;;;;;;;23.93;15.20;;;;;;;3.79;100.00;63322.53;5051892;28;20281;-56
2023/12/29 05:11:49;;;;;;;24.33;14.60;;;;;;;3.82;100.00;63323.84;5034134;28;20252;-56
2023/12/29 05:14:14;;;;;;;29.57;17.23;;;;;;;3.72;100.00;63312.41;5051713;28;20177;-52
2023/12/29 05:16:44;;;;;;;30.50;17.73;;;;;;;3.43;100.00;63282.00;5051468;28;20276;-52
2023/12/29 05:19:10;;;;;;;30.47;16.90;;;;;;;3.47;100.00;63285.28;5050191;28;20199;-54
2023/12/29 05:21:36;;;;;;;26.47;15.00;;;;;;;3.45;100.00;63283.09;5051559;28;20204;-54
2023/12/29 05:24:01;;;;;;;20.17;11.90;;;;;;;3.48;100.00;63286.88;5051770;28;20233;-53
2023/12/29 05:26:27;;;;;;;20.17;11.83;;;;;;;3.57;100.00;63298.63;5051633;28;20359;-52
2023/12/29 05:28:52;;;;;;;23.03;13.13;;;;;;;3.65;100.00;63302.88;5051674;28;20718;-53
2023/12/29 05:31:18;;;;;;;22.43;13.40;;;;;;;3.61;100.00;63298.00;5051465;28;20272;-53
2023/12/29 05:33:46;;;;;;;26.40;14.80;;;;;;;3.67;100.00;63307.00;5051611;28;20311;-53
2023/12/29 05:36:12;;;;;;;25.03;15.20;;;;;;;3.59;100.00;63300.78;5051369;28;20197;-55
2023/12/29 05:38:46;;;;;;;25.70;15.03;;;;;;;3.73;100.00;63311.03;5051169;28;20217;-53
2023/12/29 05:41:15;;;;;;;30.77;19.30;;;;;;;3.61;100.00;63298.00;5051389;28;20188;-55
2023/12/29 05:43:40;;;;;;;32.50;19.50;;;;;;;3.50;100.00;63289.06;5051194;28;20210;-53
2023/12/29 05:46:11;;;;;;;33.43;19.13;;;;;;;3.46;100.00;63281.69;5051159;28;20193;-53
2023/12/29 05:48:37;;;;;;;43.27;22.37;;;;;;;3.37;100.00;63275.47;5033659;28;20237;-52
2023/12/29 05:51:13;;;;;;;40.57;21.97;;;;;;;3.25;100.00;63264.94;5051067;28;20710;-53
2023/12/29 05:53:42;;;;;;;39.80;22.53;;;;;;;3.65;100.00;63304.81;5051457;28;20217;-53
2023/12/29 05:56:08;;;;;;;44.20;24.60;;;;;;;3.71;100.00;63311.91;5051068;28;20181;-53
2023/12/29 05:58:33;;;;;;;39.73;21.73;;;;;;;3.60;100.00;63296.88;5051150;28;20317;-52
2023/12/29 06:01:05;;;;;;;42.10;24.53;;;;;;;3.47;100.00;63285.28;5051180;28;20647;-53
2023/12/29 06:03:31;;;;;;;44.27;22.57;;;;;;;3.31;100.00;63273.41;5050955;28;20209;-53
2023/12/29 06:05:56;;;;;;;26.60;16.27;;;;;;;3.04;100.00;63239.09;5050903;28;20247;-54
2023/12/29 06:08:22;;;;;;;24.00;14.60;;;;;;;2.80;100.00;63213.59;5050882;28;20760;-56
2023/12/29 06:10:48;;;;;;;20.23;12.47;;;;;;;2.69;100.00;63199.16;5050907;28;20225;-53
2023/12/29 06:13:13;;;;;;;24.67;11.67;;;;;;;2.88;100.00;63222.28;5033307;28;20297;-53
2023/12/29 06:15:38;;;;;;;29.30;14.00;;;;;;;2.91;100.00;63223.03;5050747;28;20588;-53
2023/12/29 06:18:05;;;;;;;27.83;16.00;;;;;;;2.82;100.00;63215.75;5033064;28;20253;-54
2023/12/29 06:20:30;;;;;;;26.00;15.67;;;;;;;2.99;100.00;63233.69;5050663;28;20221;-52
2023/12/29 06:22:56;;;;;;;29.97;15.27;;;;;;;2.85;100.00;63218.47;5049414;28;20215;-53
2023/12/29 06:25:22;;;;;;;30.97;15.97;;;;;;;2.71;100.00;63203.81;5050660;28;20191;-52
2023/12/29 06:27:48;;;;;;;31.70;18.27;;;;;;;2.89;100.00;63223.34;5050373;28;20214;-54
2023/12/29 06:30:14;;;;;;;27.80;15.60;;;;;;;3.05;100.00;63240.19;5032734;28;20244;-54
2023/12/29 06:32:39;;;;;;;34.83;17.23;;;;;;;2.98;100.00;63232.59;5050905;28;20308;-54
2023/12/29 06:35:06;;;;;;;30.90;16.43;;;;;;;3.08;100.00;63243.44;5050742;28;20376;-53
2023/12/29 06:37:32;;;;;;;38.27;17.93;;;;;;;2.89;100.00;63220.34;5050727;28;20591;-55
2023/12/29 06:39:57;;;;;;;30.47;17.73;;;;;;;3.02;100.00;63235.00;5032165;28;20208;-55
2023/12/29 06:42:23;;;;;;;28.30;16.03;;;;;;;2.88;100.00;63224.22;5050644;28;20699;-55
2023/12/29 06:44:48;;;;;;;42.23;22.53;;;;;;;2.15;100.00;63143.56;5050367;28;20280;-54
2023/12/29 06:47:14;;;;;;;45.90;24.00;;;;;;;2.47;100.00;63175.28;5050193;28;20237;-55
2023/12/29 06:49:40;;;;;;;26.77;16.23;;;;;;;3.01;100.00;63236.38;5050306;28;20186;-54
2023/12/29 06:52:06;;;;;;;34.47;20.57;;;;;;;2.80;100.00;63210.56;5050076;28;20252;-55
2023/12/29 06:54:33;;;;;;;29.50;17.03;;;;;;;3.14;100.00;63245.53;5050432;28;20185;-54
2023/12/29 06:56:58;;;;;;;28.93;15.07;;;;;;;3.36;100.00;63276.34;5051084;28;20713;-54
2023/12/29 06:59:24;;;;;;;26.63;16.13;;;;;;;3.47;100.00;63285.28;5053996;28;20187;-56
2023/12/29 07:01:49;;;;;;;33.87;18.90;;;;;;;3.46;100.00;63284.16;5035908;28;20665;-54
2023/12/29 07:04:15;;;;;;;47.07;20.60;;;;;;;3.69;100.00;63309.72;5053737;28;20181;-53
2023/12/29 07:06:42;;;;;;;37.33;19.97;;;;;;;3.86;100.00;63325.16;5053632;28;20675;-53
2023/12/29 07:09:09;;;;;;;32.20;18.40;;;;;;;3.92;100.00;63334.19;5035829;28;20193;-56
2023/12/29 07:11:35;;;;;;;39.47;20.33;;;;;;;4.07;100.00;63351.03;5053333;28;20686;-59
2023/12/29 07:14:01;;;;;;;31.43;18.03;;;;;;;4.23;100.00;63363.44;5053540;28;20189;-53
2023/12/29 07:16:26;;;;;;;32.93;17.93;;;;;;;4.35;100.00;63378.44;5053529;28;20203;-54
2023/12/29 07:18:52;;;;;;;31.10;17.80;;;;;;;4.72;100.00;63420.63;5053908;28;20217;-57
2023/12/29 07:21:18;;;;;;;29.17;16.67;;;;;;;4.67;100.00;63412.69;5035653;28;20228;-52
2023/12/29 07:23:43;;;;;;;30.53;18.07;;;;;;;4.83;100.00;63430.63;5053495;28;20236;-53
2023/12/29 07:26:09;;;;;;;30.50;17.20;;;;;;;4.85;100.00;63434.75;5053323;28;20194;-52
2023/12/29 07:28:34;;;;;;;50.73;22.60;;;;;;;4.40;100.00;63383.88;5053314;28;20245;-52
2023/12/29 07:31:01;;;;;;;37.33;22.60;;;;;;;4.58;100.00;63405.41;5053444;28;20651;-53
2023/12/29 07:33:26;;;;;;;43.90;22.70;;;;;;;4.99;100.00;63453.03;5053282;28;20301;-53
2023/12/29 07:35:52;;;;;;;29.17;17.33;;;;;;;4.77;100.00;63423.56;5053410;28;20216;-53
2023/12/29 07:38:17;;;;;;;31.37;18.33;;;;;;;4.85;100.00;63435.31;5053574;28;20248;-54
2023/12/29 07:40:43;;;;;;;33.00;17.87;;;;;;;5.32;100.00;63482.88;5035485;28;20663;-53
2023/12/29 07:43:09;;;;;;;32.00;18.00;;;;;;;5.72;100.00;63526.44;5053488;28;20220;-54
2023/12/29 07:45:35;;;;;;;32.07;20.17;;;;;;;5.79;100.00;63539.06;5053225;28;20566;-54
2023/12/29 07:48:03;;;;;;;38.90;20.30;;;;;;;6.03;100.00;63562.19;5053268;28;20217;-56
2023/12/29 07:50:29;;;;;;;38.87;21.83;;;;;;;6.32;98.38;63594.31;5052951;28;20244;-54
2023/12/29 07:52:55;;;;;;;42.93;23.73;;;;;;;6.33;97.23;63592.91;5053039;28;20351;-54
2023/12/29 07:55:20;;;;;;;45.80;24.20;;;;;;;6.51;96.69;63614.47;5053062;28;20210;-54
2023/12/29 07:57:46;;;;;;;37.17;22.13;;;;;;;6.70;93.28;63633.25;5035018;28;20220;-55
2023/12/29 08:00:14;;;;;;;37.57;22.97;;;;;;;6.71;94.05;63636.84;5053036;28;20667;-52
2023/12/29 08:02:40;;;;;;;38.53;22.53;;;;;;;6.81;94.26;63644.16;5035089;28;20235;-54
2023/12/29 08:05:08;;;;;;;40.93;24.90;;;;;;;7.07;91.38;63673.03;5052851;28;20667;-53
2023/12/29 08:07:34;;;;;;;39.10;25.73;;;;;;;7.29;89.05;63696.50;5035043;28;20248;-53
2023/12/29 08:10:00;;;;;;;51.50;28.03;;;;;;;6.48;87.82;63611.22;5051381;28;20589;-57
2023/12/29 08:12:28;;;;;;;43.70;28.30;;;;;;;6.62;90.24;63627.03;5034780;28;20279;-54
2023/12/29 08:14:53;;;;;;;48.57;28.63;;;;;;;7.34;87.80;63704.44;5052929;28;20185;-53
2023/12/29 08:17:19;;;;;;;47.33;29.27;;;;;;;7.77;81.97;63746.38;5052826;28;20215;-53
2023/12/29 08:19:44;;;;;;;44.00;26.13;;;;;;;8.00;78.66;63775.94;5052812;28;20178;-53
2023/12/29 08:22:10;;;;;;;45.90;26.77;;;;;;;8.29;80.70;63805.66;5052535;28;20643;-55
2023/12/29 08:24:35;;;;;;;42.63;26.50;;;;;;;8.54;79.70;63832.41;5052743;28;20529;-53
2023/12/29 08:27:03;;;;;;;41.83;25.00;;;;;;;8.43;77.70;63825.97;5051109;28;20634;-54
2023/12/29 08:29:28;;;;;;;52.57;26.00;;;;;;;8.87;73.53;63870.41;5034891;28;20177;-54
2023/12/29 08:31:54;;;;;;;38.93;23.20;;;;;;;9.00;72.29;63879.59;5052121;28;20643;-54
2023/12/29 08:34:19;;;;;;;41.20;23.77;;;;;;;8.63;74.99;63844.19;5052370;28;20239;-55
2023/12/29 08:36:45;;;;;;;42.77;24.13;;;;;;;9.15;74.31;63898.53;5052163;28;20772;-57
2023/12/29 08:39:11;;;;;;;36.87;22.80;;;;;;;9.56;70.99;63943.34;5052544;28;20190;-54
2023/12/29 08:41:37;;;;;;;38.70;24.23;;;;;;;9.53;70.55;63942.59;5052086;28;20622;-54
2023/12/29 08:44:03;;;;;;;41.00;22.73;;;;;;;10.03;67.55;63994.75;5052308;28;20188;-54
2023/12/29 08:46:29;;;;;;;36.27;23.20;;;;;;;10.30;65.66;64023.22;5052264;28;20197;-53
2023/12/29 08:48:55;;;;;;;38.13;23.10;;;;;;;10.34;64.53;64030.66;5052046;28;20322;-55
2023/12/29 08:51:20;;;;;;;44.33;22.43;;;;;;;10.45;63.88;64039.63;5051977;28;20216;-55
2023/12/29 08:53:46;;;;;;;47.10;23.20;;;;;;;10.46;63.58;64040.72;5051779;28;20285;-55
2023/12/29 08:56:13;;;;;;;35.87;21.27;;;;;;;10.42;63.80;64038.88;5052009;28;20240;-54
2023/12/29 08:58:39;;;;;;;40.57;21.60;;;;;;;10.34;63.91;64027.59;5052090;28;20718;-58
2023/12/29 09:01:05;;;;;;;38.87;21.90;;;;;;;10.57;64.15;64053.31;5052052;28;20189;-54
2023/12/29 09:03:31;;;;;;;34.00;21.77;;;;;;;10.68;63.99;64064.81;5051742;28;20217;-53
2023/12/29 09:05:57;;;;;;;40.30;21.33;;;;;;;11.06;63.27;64103.88;5052024;28;20667;-54
2023/12/29 09:08:22;;;;;;;33.43;19.30;;;;;;;11.30;62.08;64134.66;5052245;28;20289;-53
2023/12/29 09:10:48;;;;;;;31.77;19.57;;;;;;;11.59;62.36;64161.94;5051869;28;20201;-54
2023/12/29 09:13:13;;;;;;;29.63;18.93;;;;;;;11.81;61.10;64185.53;5052077;28;20221;-53
2023/12/29 09:15:39;;;;;;;35.67;19.30;;;;;;;12.00;60.24;64206.34;5051932;28;20181;-52
2023/12/29 09:18:06;;;;;;;27.47;18.37;;;;;;;11.93;60.33;64201.19;5033892;28;20564;-52
2023/12/29 09:20:31;;;;;;;35.60;20.20;;;;;;;12.28;59.58;64239.03;5051205;28;20188;-53
2023/12/29 09:22:58;;;;;;;33.27;19.70;;;;;;;12.43;58.22;64255.47;5051551;28;20645;-54
2023/12/29 09:25:23;;;;;;;33.73;19.40;;;;;;;12.57;58.64;64270.81;5051684;28;20198;-54
2023/12/29 09:27:52;;;;;;;34.73;19.87;;;;;;;12.74;56.91;64289.47;5051509;28;20580;-55
2023/12/29 09:30:17;;;;;;;30.33;19.40;;;;;;;12.97;56.61;64314.16;5051583;28;20251;-56
2023/12/29 09:32:43;;;;;;;34.63;19.80;;;;;;;13.16;56.76;64332.47;5050517;28;20241;-59
2023/12/29 09:35:08;;;;;;;33.27;19.63;;;;;;;13.40;56.47;64361.91;5051413;28;20667;-54
2023/12/29 09:37:34;;;;;;;29.20;19.03;;;;;;;13.71;55.25;64392.31;5051626;28;20213;-57
2023/12/29 09:39:59;;;;;;;28.87;19.47;;;;;;;13.61;54.86;64383.88;5051374;28;20276;-55
2023/12/29 09:42:29;;;;;;;29.80;18.63;;;;;;;13.89;55.55;64414.59;5050822;28;20691;-58
2023/12/29 09:44:54;;;;;;;30.23;18.27;;;;;;;14.01;55.05;64425.81;5051308;28;20196;-56
2023/12/29 09:47:23;;;;;;;34.42;17.75;;;;;;;14.06;54.92;64430.72;5051480;28;20295;-55
2023/12/29 09:49:49;;;;;;;30.48;19.42;;;;;;;14.17;55.21;64442.81;5051507;28;20255;-61
2023/12/29 09:52:16;;;;;;;32.72;21.38;;;;;;;14.35;54.53;64462.06;5051332;28;20598;-55
2023/12/29 09:54:43;;;;;;;31.70;21.80;;;;;;;14.72;53.76;64507.81;5051264;28;20564;-54
2023/12/29 09:57:09;;;;;;;35.53;22.77;;;;;;;14.71;53.13;64506.69;5051331;28;20205;-55
2023/12/29 09:59:38;;;;;;;40.65;27.55;;;;;;;14.85;52.82;64520.09;5051177;28;20193;-59
2023/12/29 10:02:05;;;;;;;49.03;29.48;;;;;;;15.05;52.24;64542.09;5033149;28;20205;-53
2023/12/29 10:04:32;;;;;;;40.97;28.80;;;;;;;15.17;51.39;64554.19;5051053;28;20209;-53
2023/12/29 10:07:07;;;;;;;37.80;25.92;;;;;;;15.25;51.09;64560.44;5050994;28;20214;-53
2023/12/29 10:09:34;;;;;;;37.58;26.27;;;;;;;15.38;50.86;64577.28;5050824;28;20172;-55
2023/12/29 10:12:02;;;;;;;40.72;26.67;;;;;;;15.43;50.08;64582.81;5050884;28;20260;-56
2023/12/29 10:14:41;;;;;;;41.20;25.77;;;;;;;15.89;48.95;64631.41;5050821;28;20186;-54
2023/12/29 10:17:14;;;;;;;39.70;24.63;;;;;;;15.90;49.02;64634.50;5050915;28;20299;-55
2023/12/29 10:19:45;;;;;;;36.83;24.00;;;;;;;15.87;49.08;64631.19;5050894;28;20182;-59
2023/12/29 10:22:35;;;;;;;40.00;25.45;;;;;;;15.10;50.35;64547.59;5050946;28;20213;-53
2023/12/29 10:25:01;;;;;;;39.42;24.88;;;;;;;14.68;51.39;64498.88;5032998;28;20192;-54
2023/12/29 10:27:27;;;;;;;42.85;26.00;;;;;;;14.92;50.66;64527.25;5032873;28;20213;-54
2023/12/29 10:29:52;;;;;;;43.13;24.83;;;;;;;14.97;50.41;64530.75;5050598;28;20571;-53
2023/12/29 10:32:18;;;;;;;38.65;26.25;;;;;;;15.32;49.62;64573.22;5051928;28;20212;-52
2023/12/29 10:34:43;;;;;;;43.10;25.30;;;;;;;15.51;49.46;64591.59;5054491;28;20186;-52
2023/12/29 10:37:13;;;;;;;40.03;25.83;;;;;;;15.54;49.74;64594.88;5054372;28;20631;-53
2023/12/29 10:39:54;;;;;;;39.13;25.10;;;;;;;15.69;48.93;64609.41;5054326;28;20266;-52
2023/12/29 10:42:19;;;;;;;37.85;25.15;;;;;;;15.65;49.03;64607.00;5054144;28;20279;-52
2023/12/29 10:44:45;;;;;;;38.90;24.77;;;;;;;15.70;49.47;64613.03;5054524;28;20185;-53
2023/12/29 10:47:11;;;;;;;38.75;25.83;;;;;;;16.04;48.54;64649.91;5036340;28;20237;-53
2023/12/29 10:49:38;;;;;;;34.53;25.00;;;;;;;16.09;49.90;64655.41;5052895;28;20652;-54
2023/12/29 10:52:16;;;;;;;40.33;25.33;;;;;;;16.08;49.11;64651.22;5054082;28;20216;-55
2023/12/29 10:54:43;;;;;;;42.35;25.95;;;;;;;15.98;48.43;64641.31;5076329;23;20231;-57
2023/12/29 10:57:13;;;;;;;42.00;25.58;;;;;;;16.18;48.80;64662.75;5074171;28;20244;-56
2023/12/29 10:59:39;;;;;;;35.17;24.92;;;;;;;16.30;47.52;64675.97;5048241;22;20229;-54
2023/12/29 11:02:08;;;;;;;39.83;26.10;;;;;;;16.40;47.94;64686.97;5054290;28;20619;-57
2023/12/29 11:04:33;;;;;;;37.72;24.90;;;;;;;16.14;49.06;64660.91;5054810;28;20193;-53
2023/12/29 11:07:01;;;;;;;36.65;25.25;;;;;;;16.11;49.32;64654.50;5035965;28;20213;-55
2023/12/29 11:09:31;;;;;;;38.60;25.33;;;;;;;16.18;49.32;64662.75;5036048;28;20272;-52
2023/12/29 11:11:59;;;;;;;38.33;24.92;;;;;;;15.97;50.13;64637.13;5053447;28;20263;-54
2023/12/29 11:14:25;;;;;;;38.08;23.77;;;;;;;16.14;49.41;64658.34;5053994;28;20255;-53
2023/12/29 11:16:52;;;;;;;35.58;24.75;;;;;;;15.99;50.40;64641.88;5052453;28;20209;-55